KBBB/BBB METAR and TAF weather

Enter ICAO airport designator
Station Type Date Time Source
KBBB METAR 2024/04/15 09:55 UTC NOAA

KBBB 150955Z AUTO 07007KT 10SM SCT110 10/00 A2998 RMK AO2


Station Type Date Time Source
KBBB Decoded METAR 2024/04/15 09:55 UTC NOAA

Benson Municipal, MN, United States (KBBB) 45-19N 095-39W
Apr 15, 2024 - 05:55 AM EDT / 2024.04.15 0955 UTC
Wind: from the ENE (070 degrees) at 8 MPH (7 KT):0
Visibility: 10 mile(s):0
Sky conditions: partly cloudy
Temperature: 50 F (10 C)
Dew Point: 32 F (0 C)
Relative Humidity: 49%
Pressure (altimeter): 29.98 in. Hg (1015 hPa)
ob: KBBB 150955Z AUTO 07007KT 10SM SCT110 10/00 A2998 RMK AO2
cycle: 10

Station Type Date Time Source
KBBB TAF UTC NOAA

Error!

Example: see airport list